Time;durP1;ratioP1;P1;durP2;ratioP2;P2;SDS_P1;SDS_P2;PMS_P1;PMS_P2;Temp;Humidity;BMP_temperature;BMP_pressure;BME280_temperature;BME280_humidity;BME280_pressure;Samples;Min_cycle;Max_cycle;Signal;HPM_P1;HPM_P2
2021/10/23 00:00:00;;;;;;;;;;;;;;;9.22;79.87;100415.34;5070487;28;19920;-75
2021/10/23 00:02:26;;;;;;;;;;;;;;;9.20;80.40;100411.88;5093549;28;19923;-74
2021/10/23 00:04:51;;;;;;;;;;;;;;;9.20;80.36;100417.16;5077455;28;19931;-75
2021/10/23 00:07:16;;;;;;;;;;;;;;;9.19;79.71;100415.44;5089978;28;19946;-75
2021/10/23 00:09:42;;;;;;;;;;;;;;;9.19;80.14;100418.94;5070253;28;19951;-75
2021/10/23 00:12:08;;;;;;;;;;;;;;;9.17;79.95;100412.84;5088787;28;20437;-73
2021/10/23 00:14:33;;;;;;;;;;;;;;;9.16;80.19;100419.03;5088281;28;19917;-74
2021/10/23 00:16:59;;;;;;;;;;;;;;;9.16;79.72;100424.31;5089320;28;19942;-75
2021/10/23 00:19:24;;;;;;;;;;;;;;;9.15;80.36;100424.34;5092446;28;20291;-74
2021/10/23 00:21:49;;;;;;;;;;;;;;;9.12;80.39;100419.19;5073665;28;19920;-74
2021/10/23 00:24:14;;;;;;;;;;;;;;;9.12;79.70;100429.72;5092714;28;19942;-73
2021/10/23 00:26:40;;;;;;;;;;;;;;;9.13;79.87;100432.31;5092293;28;19942;-74
2021/10/23 00:29:05;;;;;;;;;;;;;;;9.15;80.04;100433.09;5093120;28;20014;-73
2021/10/23 00:31:30;;;;;;;;;;;;;;;9.15;80.36;100442.75;5092010;28;20389;-74
2021/10/23 00:33:55;;;;;;;;;;;;;;;9.13;80.32;100437.56;5074210;28;20060;-75
2021/10/23 00:36:21;;;;;;;;;;;;;;;9.12;80.29;100437.59;5092231;28;19916;-75
2021/10/23 00:38:46;;;;;;;;;;;;;;;9.13;79.92;100439.31;5092248;28;19916;-74
2021/10/23 00:41:11;;;;;;;;;;;;;;;9.14;80.04;100447.16;5072982;28;19916;-74
2021/10/23 00:43:38;;;;;;;;;;;;;;;9.13;80.44;100463.88;5091878;28;19920;-74
2021/10/23 00:46:04;;;;;;;;;;;;;;;9.18;80.29;100466.31;5074065;28;19965;-74
2021/10/23 00:48:29;;;;;;;;;;;;;;;9.16;79.94;100470.81;5091765;28;19924;-74
2021/10/23 00:50:54;;;;;;;;;;;;;;;9.17;79.96;100478.63;5091345;28;19916;-74
2021/10/23 00:53:20;;;;;;;;;;;;;;;9.16;80.33;100479.53;5091857;28;19923;-74
2021/10/23 00:55:45;;;;;;;;;;;;;;;9.16;79.77;100479.53;5091947;28;19944;-74
2021/10/23 00:58:10;;;;;;;;;;;;;;;9.15;80.62;100488.31;5073739;28;20204;-74
2021/10/23 01:00:36;;;;;;;;;;;;;;;9.15;80.40;100496.22;5066190;28;19916;-74
2021/10/23 01:03:01;;;;;;;;;;;;;;;9.14;80.60;100491.03;5071712;28;19930;-74
2021/10/23 01:05:26;;;;;;;;;;;;;;;9.13;80.33;100487.53;5086856;28;19924;-74
2021/10/23 01:07:51;;;;;;;;;;;;;;;9.11;80.81;100491.13;5091322;28;20345;-73
2021/10/23 01:10:17;;;;;;;;;;;;;;;9.08;80.98;100497.34;5073325;28;19916;-74
2021/10/23 01:12:44;;;;;;;;;;;;;;;9.07;81.07;100495.59;5091397;28;19917;-74
2021/10/23 01:15:17;;;;;;;;;;;;;;;9.07;81.08;100498.25;5092263;28;19928;-73
2021/10/23 01:17:42;;;;;;;;;;;;;;;9.10;81.04;100499.91;5091501;28;19942;-74
2021/10/23 01:20:08;;;;;;;;;;;;;;;9.11;80.47;100504.28;5090687;28;19939;-73
2021/10/23 01:22:33;;;;;;;;;;;;;;;9.12;81.03;100504.22;5091586;28;19920;-73
2021/10/23 01:24:58;;;;;;;;;;;;;;;9.12;80.77;100506.84;5091260;28;19920;-74
2021/10/23 01:27:24;;;;;;;;;;;;;;;9.13;80.53;100500.69;5090686;28;19973;-73
2021/10/23 01:29:49;;;;;;;;;;;;;;;9.16;80.66;100500.59;5088170;28;19947;-74
2021/10/23 01:32:14;;;;;;;;;;;;;;;9.18;80.50;100503.16;5090811;28;19923;-74
2021/10/23 01:34:39;;;;;;;;;;;;;;;9.20;80.42;100498.72;5072965;28;20484;-74
2021/10/23 01:37:05;;;;;;;;;;;;;;;9.19;80.95;100489.97;5091854;28;19927;-75
2021/10/23 01:39:33;;;;;;;;;;;;;;;9.21;81.13;100489.91;5073608;28;20002;-75
2021/10/23 01:41:58;;;;;;;;;;;;;;;9.21;80.90;100476.78;5069228;28;19924;-74
2021/10/23 01:44:24;;;;;;;;;;;;;;;9.23;80.73;100485.47;5083664;28;19985;-74
2021/10/23 01:46:50;;;;;;;;;;;;;;;9.23;80.96;100486.31;5084072;28;19920;-74
2021/10/23 01:49:15;;;;;;;;;;;;;;;9.21;80.68;100485.50;5091218;28;19920;-74
2021/10/23 01:51:40;;;;;;;;;;;;;;;9.22;80.45;100484.59;5068465;28;19919;-74
2021/10/23 01:54:07;;;;;;;;;;;;;;;9.23;80.65;100483.69;5084968;28;19920;-74
2021/10/23 01:56:33;;;;;;;;;;;;;;;9.22;80.27;100481.97;5064013;28;19916;-74
2021/10/23 01:58:59;;;;;;;;;;;;;;;9.20;80.04;100478.50;5064655;28;19924;-75
2021/10/23 02:01:24;;;;;;;;;;;;;;;9.16;80.81;100479.53;5063835;28;19916;-74
2021/10/23 02:03:49;;;;;;;;;;;;;;;9.16;80.56;100476.06;5085767;28;20327;-73
2021/10/23 02:06:14;;;;;;;;;;;;;;;9.11;80.48;100470.09;5090694;28;19917;-73
2021/10/23 02:08:39;;;;;;;;;;;;;;;9.06;80.29;100467.59;5090822;28;19921;-73
2021/10/23 02:11:05;;;;;;;;;;;;;;;9.00;80.32;100473.91;5090951;28;19939;-73
2021/10/23 02:13:30;;;;;;;;;;;;;;;8.99;80.39;100471.34;5089981;28;19916;-74
2021/10/23 02:15:55;;;;;;;;;;;;;;;8.98;81.21;100459.97;5090234;28;19959;-73
2021/10/23 02:18:21;;;;;;;;;;;;;;;8.96;80.74;100460.91;5090564;28;19916;-73
2021/10/23 02:20:46;;;;;;;;;;;;;;;8.96;80.57;100460.91;5090137;28;20015;-75
2021/10/23 02:23:11;;;;;;;;;;;;;;;8.92;81.17;100454.88;5072300;28;19916;-75
2021/10/23 02:25:37;;;;;;;;;;;;;;;8.90;81.21;100461.09;5090997;28;19923;-73
2021/10/23 02:28:02;;;;;;;;;;;;;;;8.79;81.74;100454.41;5090813;28;19931;-74
2021/10/23 02:30:27;;;;;;;;;;;;;;;8.75;81.26;100446.66;5092267;28;19924;-73
2021/10/23 02:32:53;;;;;;;;;;;;;;;8.70;81.68;100446.81;5075715;28;20007;-74
2021/10/23 02:35:19;;;;;;;;;;;;;;;8.67;81.19;100449.53;5090457;28;19924;-73
2021/10/23 02:37:44;;;;;;;;;;;;;;;8.66;81.76;100442.53;5071703;28;19961;-73
2021/10/23 02:40:10;;;;;;;;;;;;;;;8.67;82.01;100439.03;5088840;28;19920;-73
2021/10/23 02:42:35;;;;;;;;;;;;;;;8.69;81.67;100442.47;5090054;28;20363;-73
2021/10/23 02:45:01;;;;;;;;;;;;;;;8.70;81.35;100440.69;5090006;28;20396;-75
2021/10/23 02:47:26;;;;;;;;;;;;;;;8.69;81.59;100438.94;5071755;28;19927;-73
2021/10/23 02:49:51;;;;;;;;;;;;;;;8.70;81.71;100433.66;5089494;28;19916;-73
2021/10/23 02:52:16;;;;;;;;;;;;;;;8.67;81.52;100439.03;5088966;28;19923;-73
2021/10/23 02:54:42;;;;;;;;;;;;;;;8.67;81.72;100439.03;5089609;28;19938;-73
2021/10/23 02:57:07;;;;;;;;;;;;;;;8.66;81.68;100441.69;5090066;28;19920;-73
2021/10/23 02:59:32;;;;;;;;;;;;;;;8.65;81.19;100439.97;5089792;28;21252;-74
2021/10/23 03:01:57;;;;;;;;;;;;;;;8.63;81.33;100442.63;5071280;28;19924;-73
2021/10/23 03:04:23;;;;;;;;;;;;;;;8.65;81.41;100445.22;5069262;28;19920;-73
2021/10/23 03:06:48;;;;;;;;;;;;;;;8.65;81.43;100451.34;5070938;28;20366;-73
2021/10/23 03:09:14;;;;;;;;;;;;;;;8.66;81.74;100445.16;5089209;28;19920;-73
2021/10/23 03:11:40;;;;;;;;;;;;;;;8.65;81.89;100453.97;5089695;28;19931;-73
2021/10/23 03:14:05;;;;;;;;;;;;;;;8.64;81.67;100449.63;5071603;28;19916;-73
2021/10/23 03:16:30;;;;;;;;;;;;;;;8.67;81.66;100453.94;5089235;28;19916;-74
2021/10/23 03:18:55;;;;;;;;;;;;;;;8.67;80.79;100454.78;5089081;28;20360;-74
2021/10/23 03:21:21;;;;;;;;;;;;;;;8.62;81.12;100461.97;5088198;28;19940;-74
2021/10/23 03:23:46;;;;;;;;;;;;;;;8.62;81.39;100459.31;5089050;28;19916;-74
2021/10/23 03:26:12;;;;;;;;;;;;;;;8.60;81.67;100464.63;5088872;28;19916;-74
2021/10/23 03:28:37;;;;;;;;;;;;;;;8.58;81.28;100470.81;5089592;28;19920;-74
2021/10/23 03:31:02;;;;;;;;;;;;;;;8.55;81.08;100470.94;5088748;28;19923;-74
2021/10/23 03:33:27;;;;;;;;;;;;;;;8.50;81.12;100475.47;5089123;28;19924;-72
2021/10/23 03:35:53;;;;;;;;;;;;;;;8.49;81.42;100473.72;5088880;28;19946;-74
2021/10/23 03:38:18;;;;;;;;;;;;;;;8.41;81.30;100475.72;5085799;28;19916;-74
2021/10/23 03:40:43;;;;;;;;;;;;;;;8.36;81.43;100471.41;5070883;28;19916;-73
2021/10/23 03:43:08;;;;;;;;;;;;;;;8.35;81.90;100479.38;5088701;28;19924;-74
2021/10/23 03:45:34;;;;;;;;;;;;;;;8.36;82.12;100499.47;5089278;28;19931;-74
2021/10/23 03:47:59;;;;;;;;;;;;;;;8.35;81.42;100505.63;5088769;28;19978;-74
2021/10/23 03:50:24;;;;;;;;;;;;;;;8.35;82.04;100500.38;5069728;28;20007;-74
2021/10/23 03:52:49;;;;;;;;;;;;;;;8.37;81.47;100502.06;5090925;28;19959;-75
2021/10/23 03:55:14;;;;;;;;;;;;;;;8.41;81.73;100508.09;5092691;28;19920;-75
2021/10/23 03:57:40;;;;;;;;;;;;;;;8.44;81.85;100510.66;5093014;28;19916;-72
2021/10/23 04:00:06;;;;;;;;;;;;;;;8.45;82.34;100511.53;5092885;28;19916;-74
2021/10/23 04:02:31;;;;;;;;;;;;;;;8.48;82.27;100507.03;5092438;28;19986;-73
2021/10/23 04:04:57;;;;;;;;;;;;;;;8.51;81.76;100508.69;5092840;28;19920;-74
2021/10/23 04:07:22;;;;;;;;;;;;;;;8.52;82.15;100513.94;5092369;28;20008;-72
2021/10/23 04:09:47;;;;;;;;;;;;;;;8.53;81.34;100512.16;5092708;28;19942;-74
2021/10/23 04:12:12;;;;;;;;;;;;;;;8.54;81.92;100511.22;5074057;28;19916;-73
2021/10/23 04:14:38;;;;;;;;;;;;;;;8.50;81.77;100507.84;5092775;28;19916;-73
2021/10/23 04:17:03;;;;;;;;;;;;;;;8.52;82.03;100513.06;5091973;28;19947;-73
2021/10/23 04:19:28;;;;;;;;;;;;;;;8.54;81.69;100508.59;5092367;28;19924;-75
2021/10/23 04:21:53;;;;;;;;;;;;;;;8.52;81.54;100510.44;5056922;28;20448;-74
2021/10/23 04:24:18;;;;;;;;;;;;;;;8.53;81.89;100515.63;5074222;28;20410;-73
2021/10/23 04:26:44;;;;;;;;;;;;;;;8.56;81.19;100519.94;5074311;28;19920;-73
2021/10/23 04:29:09;;;;;;;;;;;;;;;8.55;81.71;100528.75;5093147;28;19924;-73
2021/10/23 04:31:34;;;;;;;;;;;;;;;8.52;81.28;100534.09;5092261;28;19916;-72
2021/10/23 04:34:02;;;;;;;;;;;;;;;8.53;81.03;100535.81;5092303;28;20015;-74
2021/10/23 04:36:27;;;;;;;;;;;;;;;8.55;81.06;100534.84;5092093;28;19916;-73
2021/10/23 04:38:52;;;;;;;;;;;;;;;8.57;80.55;100529.56;5092085;28;20291;-73
2021/10/23 04:41:17;;;;;;;;;;;;;;;8.57;81.10;100535.69;5091811;28;20287;-73
2021/10/23 04:43:43;;;;;;;;;;;;;;;8.58;80.98;100537.38;5091780;28;19916;-74
2021/10/23 04:46:08;;;;;;;;;;;;;;;8.59;82.08;100539.13;5093087;28;19916;-74
2021/10/23 04:48:34;;;;;;;;;;;;;;;8.59;81.75;100540.91;5092474;28;19920;-74
2021/10/23 04:50:59;;;;;;;;;;;;;;;8.58;81.17;100549.66;5092614;28;19939;-73
2021/10/23 04:53:24;;;;;;;;;;;;;;;8.64;81.08;100552.16;5093202;28;19923;-73
2021/10/23 04:55:50;;;;;;;;;;;;;;;8.65;81.48;100551.22;5093909;28;20015;-74
2021/10/23 04:58:15;;;;;;;;;;;;;;;8.62;81.62;100530.28;5099291;28;19916;-73
2021/10/23 05:00:41;;;;;;;;;;;;;;;8.62;81.34;100532.91;5099400;28;19954;-73
2021/10/23 05:03:06;;;;;;;;;;;;;;;8.63;80.62;100537.25;5069122;28;20283;-74
2021/10/23 05:05:31;;;;;;;;;;;;;;;8.63;80.46;100539.88;5082224;28;19916;-74
2021/10/23 05:07:57;;;;;;;;;;;;;;;8.65;80.45;100545.13;5086856;28;19928;-73
2021/10/23 05:10:22;;;;;;;;;;;;;;;8.67;80.52;100543.31;5083281;28;19920;-74
2021/10/23 05:12:47;;;;;;;;;;;;;;;8.68;80.89;100545.00;5064317;28;19927;-74
2021/10/23 05:15:12;;;;;;;;;;;;;;;8.67;80.19;100536.28;5095470;28;20054;-74
2021/10/23 05:17:38;;;;;;;;;;;;;;;8.67;80.35;100538.06;5094654;28;20099;-74
2021/10/23 05:20:04;;;;;;;;;;;;;;;8.66;80.70;100534.53;5075232;28;19982;-73
2021/10/23 05:22:29;;;;;;;;;;;;;;;8.67;81.10;100538.06;5093175;28;19920;-74
2021/10/23 05:24:54;;;;;;;;;;;;;;;8.67;80.58;100531.03;5092644;28;19923;-74
2021/10/23 05:27:19;;;;;;;;;;;;;;;8.68;80.55;100529.25;5074711;28;20362;-75
2021/10/23 05:29:45;;;;;;;;;;;;;;;8.68;80.32;100527.47;5074202;28;19969;-72
2021/10/23 05:32:10;;;;;;;;;;;;;;;8.70;80.91;100530.06;5093001;28;19920;-73
2021/10/23 05:34:35;;;;;;;;;;;;;;;8.73;80.56;100532.59;5093050;28;19969;-74
2021/10/23 05:37:01;;;;;;;;;;;;;;;8.73;81.05;100522.06;5074486;28;19920;-75
2021/10/23 05:39:26;;;;;;;;;;;;;;;8.74;80.90;100524.66;5074294;28;19943;-73
2021/10/23 05:41:51;;;;;;;;;;;;;;;8.75;81.11;100526.38;5073204;28;19930;-73
2021/10/23 05:44:16;;;;;;;;;;;;;;;8.76;80.73;100516.72;5080573;28;20470;-74
2021/10/23 05:46:42;;;;;;;;;;;;;;;8.77;81.16;100524.56;5072165;28;19917;-75
2021/10/23 05:49:07;;;;;;;;;;;;;;;8.80;80.76;100519.22;5071090;28;19921;-73
2021/10/23 05:51:32;;;;;;;;;;;;;;;8.81;80.79;100530.59;5059464;28;20037;-75
2021/10/23 05:53:58;;;;;;;;;;;;;;;8.86;80.68;100526.06;5072585;28;19920;-73
2021/10/23 05:56:23;;;;;;;;;;;;;;;8.86;80.89;100520.81;5090695;28;19920;-73
2021/10/23 05:58:48;;;;;;;;;;;;;;;8.87;80.62;100529.56;5090462;28;19923;-73
2021/10/23 06:01:13;;;;;;;;;;;;;;;8.88;80.06;100533.91;5072312;28;19916;-73
2021/10/23 06:03:39;;;;;;;;;;;;;;;8.89;79.90;100544.38;5089728;28;20395;-73
2021/10/23 06:06:06;;;;;;;;;;;;;;;8.94;79.65;100553.00;5091069;28;19923;-73
2021/10/23 06:08:32;;;;;;;;;;;;;;;8.95;80.56;100549.44;5090559;28;20002;-74
2021/10/23 06:10:57;;;;;;;;;;;;;;;8.98;80.34;100553.75;5089499;28;20011;-73
2021/10/23 06:13:23;;;;;;;;;;;;;;;9.03;80.09;100557.09;5090433;28;20423;-74
2021/10/23 06:15:51;;;;;;;;;;;;;;;9.01;80.29;100561.56;5071867;28;19916;-74
2021/10/23 06:18:17;;;;;;;;;;;;;;;8.98;79.55;100565.16;5072217;28;19916;-75
2021/10/23 06:20:42;;;;;;;;;;;;;;;8.96;79.16;100568.75;5090303;28;19916;-74
2021/10/23 06:23:07;;;;;;;;;;;;;;;8.94;79.24;100565.28;5090247;28;19979;-74
2021/10/23 06:25:33;;;;;;;;;;;;;;;8.94;79.64;100568.78;5071735;28;20003;-74
2021/10/23 06:27:59;;;;;;;;;;;;;;;8.89;79.00;100575.09;5090108;28;20011;-74
2021/10/23 06:30:25;;;;;;;;;;;;;;;8.87;79.29;100580.38;5089604;28;20383;-74
2021/10/23 06:32:51;;;;;;;;;;;;;;;8.87;79.27;100587.41;5090296;28;19916;-75
2021/10/23 06:35:17;;;;;;;;;;;;;;;8.88;79.60;100597.00;5090491;28;19919;-74
2021/10/23 06:37:42;;;;;;;;;;;;;;;8.89;79.58;100598.75;5090657;28;19998;-74
2021/10/23 06:40:08;;;;;;;;;;;;;;;8.88;79.22;100599.63;5071659;28;20030;-74
2021/10/23 06:42:33;;;;;;;;;;;;;;;8.90;78.78;100600.47;5090307;28;19943;-74
2021/10/23 06:44:58;;;;;;;;;;;;;;;8.90;78.80;100592.56;5090280;28;19920;-74
2021/10/23 06:47:24;;;;;;;;;;;;;;;8.90;79.34;100589.94;5090738;28;19923;-74
2021/10/23 06:49:49;;;;;;;;;;;;;;;8.92;79.15;100599.50;5089555;28;19947;-74
2021/10/23 06:52:14;;;;;;;;;;;;;;;8.94;79.41;100591.59;5088913;28;20267;-74
2021/10/23 06:54:39;;;;;;;;;;;;;;;8.95;79.05;100604.66;5071178;28;19970;-74
2021/10/23 06:57:04;;;;;;;;;;;;;;;8.98;79.24;100611.59;5089355;28;20068;-75
2021/10/23 06:59:30;;;;;;;;;;;;;;;9.01;79.38;100607.13;5089327;28;19916;-74
2021/10/23 07:01:55;;;;;;;;;;;;;;;9.05;79.66;100617.56;5088478;28;20291;-73
2021/10/23 07:04:20;;;;;;;;;;;;;;;9.08;79.47;100617.47;5070916;28;20800;-74
2021/10/23 07:06:45;;;;;;;;;;;;;;;9.14;79.75;100628.66;5071409;28;19991;-74
2021/10/23 07:09:11;;;;;;;;;;;;;;;9.18;79.60;100637.31;5089343;28;20442;-73
2021/10/23 07:11:36;;;;;;;;;;;;;;;9.18;79.60;100643.47;5088881;28;19920;-73
2021/10/23 07:14:01;;;;;;;;;;;;;;;9.21;79.34;100650.41;5071216;28;19939;-74
2021/10/23 07:16:26;;;;;;;;;;;;;;;9.23;78.82;100641.56;5071183;28;19920;-74
2021/10/23 07:18:52;;;;;;;;;;;;;;;9.21;78.30;100646.00;5070971;28;20012;-73
2021/10/23 07:21:17;;;;;;;;;;;;;;;9.18;78.90;100654.00;5088850;28;19947;-73
2021/10/23 07:23:42;;;;;;;;;;;;;;;9.18;80.48;100659.25;5089421;28;20329;-74
2021/10/23 07:26:08;;;;;;;;;;;;;;;9.23;80.11;100659.97;5072481;28;20417;-74
2021/10/23 07:28:33;;;;;;;;;;;;;;;9.22;79.87;100671.38;5074906;28;19920;-75
2021/10/23 07:30:59;;;;;;;;;;;;;;;9.19;78.43;100668.84;5094008;28;19916;-73
2021/10/23 07:33:24;;;;;;;;;;;;;;;9.18;78.12;100666.25;5093691;28;19947;-75
2021/10/23 07:35:50;;;;;;;;;;;;;;;9.21;78.70;100663.56;5093562;28;19973;-74
2021/10/23 07:38:15;;;;;;;;;;;;;;;9.26;77.91;100669.53;5093918;28;19965;-74
2021/10/23 07:40:40;;;;;;;;;;;;;;;9.33;78.39;100675.47;5093325;28;19916;-75
2021/10/23 07:43:06;;;;;;;;;;;;;;;9.39;77.91;100680.56;5075135;28;19923;-74
2021/10/23 07:45:31;;;;;;;;;;;;;;;9.40;78.26;100682.28;5093764;28;20383;-75
2021/10/23 07:47:57;;;;;;;;;;;;;;;9.39;77.63;100686.69;5074511;28;20391;-73
2021/10/23 07:50:23;;;;;;;;;;;;;;;9.41;77.54;100691.91;5073869;28;19996;-75
2021/10/23 07:52:48;;;;;;;;;;;;;;;9.44;77.77;100689.19;5071591;28;19923;-75
2021/10/23 07:55:13;;;;;;;;;;;;;;;9.45;77.29;100690.88;5082827;28;20403;-75
2021/10/23 07:57:39;;;;;;;;;;;;;;;9.45;77.44;100699.66;5056369;28;20364;-75
2021/10/23 08:00:08;;;;;;;;;;;;;;;9.49;78.11;100697.78;5054510;28;19965;-75
2021/10/23 08:02:33;;;;;;;;;;;;;;;9.51;77.17;100698.63;5072532;28;19958;-75
2021/10/23 08:04:58;;;;;;;;;;;;;;;9.57;77.55;100697.56;5073296;28;19959;-73
2021/10/23 08:07:24;;;;;;;;;;;;;;;9.61;78.02;100697.44;5056762;28;20004;-73
2021/10/23 08:09:49;;;;;;;;;;;;;;;9.61;77.09;100702.69;5073241;28;19921;-73
2021/10/23 08:12:14;;;;;;;;;;;;;;;9.60;77.46;100705.38;5055019;28;19916;-74
2021/10/23 08:14:40;;;;;;;;;;;;;;;9.64;76.88;100707.84;5073682;28;20387;-74
2021/10/23 08:17:05;;;;;;;;;;;;;;;9.77;77.19;100712.75;5057018;28;19927;-74
2021/10/23 08:19:31;;;;;;;;;;;;;;;9.86;76.89;100713.31;5075530;28;19923;-74
2021/10/23 08:21:56;;;;;;;;;;;;;;;9.95;76.69;100716.59;5055049;28;19920;-75
2021/10/23 08:24:22;;;;;;;;;;;;;;;9.98;76.01;100722.63;5075206;28;19916;-75
2021/10/23 08:26:47;;;;;;;;;;;;;;;9.94;75.63;100726.25;5073309;28;19924;-73
2021/10/23 08:29:13;;;;;;;;;;;;;;;9.91;75.19;100730.75;5055343;28;19993;-74
2021/10/23 08:31:39;;;;;;;;;;;;;;;9.90;75.88;100735.16;5072460;28;19999;-74
2021/10/23 08:34:05;;;;;;;;;;;;;;;9.86;75.24;100733.53;5073227;28;20433;-74
2021/10/23 08:36:31;;;;;;;;;;;;;;;9.85;75.02;100739.72;5072696;28;19920;-76
2021/10/23 08:38:56;;;;;;;;;;;;;;;9.80;75.25;100733.75;5071087;28;19950;-74
2021/10/23 08:41:22;;;;;;;;;;;;;;;9.77;75.94;100737.31;5071079;28;19917;-74
2021/10/23 08:43:47;;;;;;;;;;;;;;;9.85;76.19;100745.84;5071821;28;20295;-74
2021/10/23 08:46:13;;;;;;;;;;;;;;;9.94;75.15;100743.81;5072034;28;19920;-75
2021/10/23 08:48:43;;;;;;;;;;;;;;;9.94;75.43;100749.94;5072034;28;19927;-74
2021/10/23 08:51:09;;;;;;;;;;;;;;;10.01;74.88;100751.47;5053193;28;19979;-75
2021/10/23 08:53:36;;;;;;;;;;;;;;;10.01;74.12;100742.72;5053481;28;19917;-74
2021/10/23 08:56:01;;;;;;;;;;;;;;;10.06;74.61;100748.72;5076778;28;20003;-75
2021/10/23 08:58:27;;;;;;;;;;;;;;;10.08;74.49;100750.38;5073212;28;20319;-74
2021/10/23 09:00:53;;;;;;;;;;;;;;;10.16;73.98;100744.00;5090929;28;19916;-74
2021/10/23 09:03:18;;;;;;;;;;;;;;;10.26;73.77;100740.16;5090653;28;19920;-74
2021/10/23 09:05:43;;;;;;;;;;;;;;;10.37;74.09;100735.44;5091669;28;19977;-74
2021/10/23 09:08:16;;;;;;;;;;;;;;;10.52;73.23;100734.06;5091752;28;20272;-74
2021/10/23 09:10:45;;;;;;;;;;;;;;;10.64;72.49;100743.34;5092634;28;20335;-74
2021/10/23 09:13:11;;;;;;;;;;;;;;;10.79;72.19;100744.59;5093851;28;19920;-74
2021/10/23 09:15:40;;;;;;;;;;;;;;;11.16;70.70;100745.00;5092329;28;20011;-75
2021/10/23 09:18:06;;;;;;;;;;;;;;;11.83;69.57;100743.38;5092781;28;19923;-73
2021/10/23 09:20:41;;;;;;;;;;;;;;;12.02;68.89;100754.13;5074170;28;19951;-74
2021/10/23 09:23:13;;;;;;;;;;;;;;;11.92;66.66;100755.41;5073716;28;20024;-74
2021/10/23 09:25:41;;;;;;;;;;;;;;;11.97;67.50;100754.31;5094097;28;19943;-74
2021/10/23 09:28:12;;;;;;;;;;;;;;;12.17;67.19;100758.78;5091385;28;19944;-74
2021/10/23 09:30:45;;;;;;;;;;;;;;;12.08;66.14;100758.31;5090951;28;19924;-73
2021/10/23 09:33:14;;;;;;;;;;;;;;;11.89;66.84;100758.16;5091490;28;19973;-74
2021/10/23 09:35:39;;;;;;;;;;;;;;;11.84;66.92;100758.31;5091575;28;19916;-74
2021/10/23 09:38:05;;;;;;;;;;;;;;;11.82;67.58;100758.38;5091871;28;19934;-74
2021/10/23 09:40:31;;;;;;;;;;;;;;;11.90;67.94;100762.53;5092520;28;19926;-74
2021/10/23 09:43:03;;;;;;;;;;;;;;;11.98;67.92;100773.66;5093100;28;19920;-74
2021/10/23 09:45:29;;;;;;;;;;;;;;;12.06;67.43;100774.25;5072371;28;19916;-76
2021/10/23 09:48:03;;;;;;;;;;;;;;;12.18;67.50;100767.56;5090998;28;19931;-73
2021/10/23 09:50:28;;;;;;;;;;;;;;;12.38;65.62;100769.41;5088941;28;19923;-74
2021/10/23 09:52:55;;;;;;;;;;;;;;;12.62;64.34;100773.69;5090457;28;20404;-74
2021/10/23 09:55:20;;;;;;;;;;;;;;;13.45;62.11;100771.91;5055337;28;20007;-74
2021/10/23 09:57:47;;;;;;;;;;;;;;;14.15;60.30;100773.94;5069956;28;19994;-74
2021/10/23 10:00:12;;;;;;;;;;;;;;;14.06;59.93;100766.41;5090233;28;20003;-74
2021/10/23 10:02:41;;;;;;;;;;;;;;;14.09;60.63;100774.19;5090167;28;20010;-74
2021/10/23 10:05:07;;;;;;;;;;;;;;;14.41;60.56;100771.78;5071919;28;19920;-74
2021/10/23 10:07:32;;;;;;;;;;;;;;;14.41;58.00;100768.28;5090255;28;19966;-73
2021/10/23 10:09:58;;;;;;;;;;;;;;;14.12;59.83;100778.50;5090237;28;19916;-73
2021/10/23 10:12:23;;;;;;;;;;;;;;;13.79;59.56;100781.81;5089260;28;19916;-74
2021/10/23 10:14:50;;;;;;;;;;;;;;;13.69;59.13;100783.19;5089226;28;20452;-75
2021/10/23 10:17:16;;;;;;;;;;;;;;;13.64;59.95;100782.53;5072508;28;19930;-74
2021/10/23 10:19:41;;;;;;;;;;;;;;;13.49;60.59;100784.97;5090199;28;19920;-74
2021/10/23 10:22:08;;;;;;;;;;;;;;;13.42;59.77;100790.59;5073495;28;20015;-75
2021/10/23 10:24:35;;;;;;;;;;;;;;;13.35;60.42;100790.00;5095068;28;19916;-73
2021/10/23 10:27:02;;;;;;;;;;;;;;;13.19;60.74;100786.28;5091935;28;19923;-75
2021/10/23 10:29:34;;;;;;;;;;;;;;;13.13;61.42;100791.84;5090889;28;20037;-74
2021/10/23 10:32:19;;;;;;;;;;;;;;;13.07;61.09;100791.19;5089448;28;19939;-76
2021/10/23 10:34:51;;;;;;;;;;;;;;;13.03;60.54;100786.09;5089929;28;19920;-73
2021/10/23 10:37:26;;;;;;;;;;;;;;;13.02;61.13;100784.34;5088610;28;19916;-75
2021/10/23 10:42:54;;;;;;;;;;;;;;;13.08;62.32;100792.91;5092899;28;19916;-75
2021/10/23 10:45:22;;;;;;;;;;;;;;;13.27;61.36;100790.34;5090256;28;20646;-75
2021/10/23 10:48:05;;;;;;;;;;;;;;;13.37;61.93;100789.94;5090866;28;20005;-74
2021/10/23 10:50:40;;;;;;;;;;;;;;;13.40;62.45;100788.00;5088865;28;20023;-74
2021/10/23 10:53:28;;;;;;;;;;;;;;;13.59;60.04;100784.53;5089450;28;19920;-73
2021/10/23 10:55:55;;;;;;;;;;;;;;;13.62;59.41;100781.75;5042773;28;19924;-74
2021/10/23 10:58:38;;;;;;;;;;;;;;;13.68;59.63;100781.44;5073250;28;19948;-74
2021/10/23 11:01:17;;;;;;;;;;;;;;;13.67;60.80;100772.66;5073064;28;20568;-74
2021/10/23 11:03:43;;;;;;;;;;;;;;;13.72;59.98;100777.75;5092584;28;19951;-74
2021/10/23 11:06:31;;;;;;;;;;;;;;;13.76;59.97;100771.38;5090203;28;21277;-74
2021/10/23 11:09:11;;;;;;;;;;;;;;;13.71;59.37;100783.97;5089512;28;19931;-73
2021/10/23 11:11:42;;;;;;;;;;;;;;;13.68;59.18;100781.44;5088162;28;19958;-74
2021/10/23 11:14:08;;;;;;;;;;;;;;;13.49;59.92;100770.84;5088979;28;20013;-73
2021/10/23 11:16:35;;;;;;;;;;;;;;;13.46;61.25;100774.50;5089144;28;19916;-73
2021/10/23 11:19:02;;;;;;;;;;;;;;;13.52;60.11;100768.91;5088880;28;20328;-74
2021/10/23 11:21:27;;;;;;;;;;;;;;;13.54;61.74;100766.22;5053571;28;20394;-73
2021/10/23 11:23:53;;;;;;;;;;;;;;;13.54;60.32;100771.50;5089078;28;19958;-73
2021/10/23 11:26:19;;;;;;;;;;;;;;;13.57;59.78;100765.22;5089525;28;19916;-73
2021/10/23 11:28:44;;;;;;;;;;;;;;;13.64;60.08;100771.94;5089021;28;19927;-74
2021/10/23 11:31:19;;;;;;;;;;;;;;;13.70;59.25;100776.94;5070181;28;19917;-73
2021/10/23 11:33:45;;;;;;;;;;;;;;;13.71;60.53;100768.94;5089537;28;19917;-73
2021/10/23 11:36:13;;;;;;;;;;;;;;;13.67;59.24;100770.00;5089199;28;19969;-73
2021/10/23 11:38:38;;;;;;;;;;;;;;;13.65;58.39;100766.56;5089221;28;19946;-74
2021/10/23 11:41:04;;;;;;;;;;;;;;;13.66;58.95;100768.28;5088673;28;19923;-73
2021/10/23 11:43:32;;;;;;;;;;;;;;;13.68;58.98;100769.09;5088909;28;20018;-74
2021/10/23 11:45:57;;;;;;;;;;;;;;;13.72;58.48;100761.84;5089018;28;19916;-73
2021/10/23 11:48:23;;;;;;;;;;;;;;;13.70;59.18;100766.34;5089281;28;19947;-73
2021/10/23 11:50:49;;;;;;;;;;;;;;;13.67;59.67;100763.84;5088950;28;20398;-74
2021/10/23 11:53:19;;;;;;;;;;;;;;;13.66;59.35;100768.28;5089081;28;20003;-74
2021/10/23 11:55:46;;;;;;;;;;;;;;;13.58;58.36;100770.41;5085155;28;20395;-74
2021/10/23 11:58:13;;;;;;;;;;;;;;;13.53;57.62;100772.41;5054213;28;19923;-74
2021/10/23 12:00:40;;;;;;;;;;;;;;;13.56;58.90;100764.34;5070308;28;19993;-74
2021/10/23 12:03:06;;;;;;;;;;;;;;;13.59;58.27;100769.50;5088811;28;19966;-74
2021/10/23 12:05:50;;;;;;;;;;;;;;;13.63;57.18;100775.50;5070803;28;19920;-72
2021/10/23 12:08:19;;;;;;;;;;;;;;;13.60;56.90;100770.34;5071070;28;19958;-73
2021/10/23 12:11:03;;;;;;;;;;;;;;;13.59;58.43;100773.94;5088761;28;19920;-73
2021/10/23 12:13:29;;;;;;;;;;;;;;;13.57;58.17;100775.81;5071560;28;20456;-74
2021/10/23 12:16:04;;;;;;;;;;;;;;;13.55;57.54;100778.50;5074217;28;19916;-75
2021/10/23 12:18:31;;;;;;;;;;;;;;;13.59;55.94;100768.66;5093081;28;20454;-74
2021/10/23 12:21:08;;;;;;;;;;;;;;;13.54;56.39;100768.84;5075568;28;19920;-75
2021/10/23 12:23:44;;;;;;;;;;;;;;;13.41;56.35;100771.19;5093551;28;19926;-74
2021/10/23 12:26:09;;;;;;;;;;;;;;;13.38;57.79;100771.31;5094330;28;19959;-75
2021/10/23 12:28:53;;;;;;;;;;;;;;;13.43;58.51;100763.16;5094091;28;20360;-74
2021/10/23 12:31:19;;;;;;;;;;;;;;;13.44;58.48;100759.63;5075681;28;19916;-74
2021/10/23 12:34:05;;;;;;;;;;;;;;;13.45;58.49;100761.31;5095563;28;19923;-75
2021/10/23 12:36:31;;;;;;;;;;;;;;;13.50;59.06;100759.31;5094456;28;19920;-74
2021/10/23 12:39:15;;;;;;;;;;;;;;;13.48;58.56;100756.72;5095786;28;19920;-75
2021/10/23 12:41:40;;;;;;;;;;;;;;;13.38;60.02;100751.94;5095398;28;19920;-76